sensor_id;sensor_type;location;lat;lon;timestamp;P1;P2;P0
50827;PMS7003;36804;40.218;116.442;2023-03-24T00:01:03;19.00;3.75;1.75
50827;PMS7003;36804;40.218;116.442;2023-03-24T00:06:09;22.25;3.75;2.00
50827;PMS7003;36804;40.218;116.442;2023-03-24T00:11:16;16.00;3.00;1.75
50827;PMS7003;36804;40.218;116.442;2023-03-24T00:16:22;18.25;3.25;2.00
50827;PMS7003;36804;40.218;116.442;2023-03-24T00:21:27;27.50;4.75;1.00
50827;PMS7003;36804;40.218;116.442;2023-03-24T00:26:32;24.00;6.25;3.00
50827;PMS7003;36804;40.218;116.442;2023-03-24T00:31:37;25.25;3.50;2.00
50827;PMS7003;36804;40.218;116.442;2023-03-24T00:36:42;20.50;5.50;2.00
50827;PMS7003;36804;40.218;116.442;2023-03-24T00:41:48;21.25;3.75;2.50
50827;PMS7003;36804;40.218;116.442;2023-03-24T00:46:52;23.00;6.75;3.00
50827;PMS7003;36804;40.218;116.442;2023-03-24T00:51:59;21.50;3.75;2.25
50827;PMS7003;36804;40.218;116.442;2023-03-24T00:57:05;19.25;4.25;2.00
50827;PMS7003;36804;40.218;116.442;2023-03-24T01:02:09;25.75;4.50;2.00
50827;PMS7003;36804;40.218;116.442;2023-03-24T01:07:16;23.00;5.00;3.00
50827;PMS7003;36804;40.218;116.442;2023-03-24T01:12:20;34.25;7.50;2.75
50827;PMS7003;36804;40.218;116.442;2023-03-24T01:17:25;35.00;7.00;5.00
50827;PMS7003;36804;40.218;116.442;2023-03-24T01:22:29;31.00;6.25;4.25
50827;PMS7003;36804;40.218;116.442;2023-03-24T01:27:34;21.00;4.50;2.00
50827;PMS7003;36804;40.218;116.442;2023-03-24T01:32:40;24.00;6.75;2.50
50827;PMS7003;36804;40.218;116.442;2023-03-24T01:37:46;19.25;4.00;2.00
50827;PMS7003;36804;40.218;116.442;2023-03-24T01:42:50;26.00;6.00;2.00
50827;PMS7003;36804;40.218;116.442;2023-03-24T01:47:55;20.50;5.50;2.25
50827;PMS7003;36804;40.218;116.442;2023-03-24T01:52:59;27.75;6.75;3.00
50827;PMS7003;36804;40.218;116.442;2023-03-24T01:58:04;23.50;7.00;2.50
50827;PMS7003;36804;40.218;116.442;2023-03-24T02:03:27;25.50;3.75;2.00
50827;PMS7003;36804;40.218;116.442;2023-03-24T02:08:41;22.75;6.25;2.50
50827;PMS7003;36804;40.218;116.442;2023-03-24T02:13:47;18.00;3.00;2.00
50827;PMS7003;36804;40.218;116.442;2023-03-24T02:50:14;25.75;6.00;2.00
50827;PMS7003;36804;40.218;116.442;2023-03-24T02:55:28;18.75;4.25;2.00
50827;PMS7003;36804;40.218;116.442;2023-03-24T03:06:32;23.25;5.00;2.00
50827;PMS7003;36804;40.218;116.442;2023-03-24T03:11:39;21.00;3.00;1.00
50827;PMS7003;36804;40.218;116.442;2023-03-24T03:16:53;23.50;3.50;2.00
50827;PMS7003;36804;40.218;116.442;2023-03-24T03:22:03;21.75;4.75;2.00
50827;PMS7003;36804;40.218;116.442;2023-03-24T03:27:15;23.00;6.50;2.00
50827;PMS7003;36804;40.218;116.442;2023-03-24T03:32:23;21.25;3.50;1.00
50827;PMS7003;36804;40.218;116.442;2023-03-24T03:42:36;18.75;4.00;2.00
50827;PMS7003;36804;40.218;116.442;2023-03-24T03:47:41;23.25;3.50;2.50
50827;PMS7003;36804;40.218;116.442;2023-03-24T03:52:47;17.75;2.25;1.25
50827;PMS7003;36804;40.218;116.442;2023-03-24T03:57:52;21.50;4.00;1.75
50827;PMS7003;36804;40.218;116.442;2023-03-24T04:14:17;23.75;4.00;2.00
50827;PMS7003;36804;40.218;116.442;2023-03-24T04:20:28;21.75;3.50;1.00
50827;PMS7003;36804;40.218;116.442;2023-03-24T04:35:52;19.75;3.00;2.00
50827;PMS7003;36804;40.218;116.442;2023-03-24T04:41:09;16.25;3.00;1.75
50827;PMS7003;36804;40.218;116.442;2023-03-24T04:46:20;17.50;2.00;1.00
50827;PMS7003;36804;40.218;116.442;2023-03-24T04:51:48;22.75;8.50;4.00
50827;PMS7003;36804;40.218;116.442;2023-03-24T04:56:59;19.00;3.00;2.00
50827;PMS7003;36804;40.218;116.442;2023-03-24T05:02:13;21.50;3.75;2.00
50827;PMS7003;36804;40.218;116.442;2023-03-24T05:07:28;22.50;5.25;2.00
50827;PMS7003;36804;40.218;116.442;2023-03-24T05:12:38;15.00;2.00;1.00
50827;PMS7003;36804;40.218;116.442;2023-03-24T05:18:14;19.00;2.75;1.50
50827;PMS7003;36804;40.218;116.442;2023-03-24T05:23:19;21.25;4.00;2.00
50827;PMS7003;36804;40.218;116.442;2023-03-24T05:28:24;20.50;4.00;2.00
50827;PMS7003;36804;40.218;116.442;2023-03-24T05:33:29;19.00;3.00;2.25
50827;PMS7003;36804;40.218;116.442;2023-03-24T05:38:35;19.75;4.50;1.75
50827;PMS7003;36804;40.218;116.442;2023-03-24T05:43:40;19.50;2.25;1.50
50827;PMS7003;36804;40.218;116.442;2023-03-24T05:48:47;26.25;4.00;2.00
50827;PMS7003;36804;40.218;116.442;2023-03-24T05:53:54;17.75;3.25;1.25
50827;PMS7003;36804;40.218;116.442;2023-03-24T05:59:07;20.25;5.00;2.00
50827;PMS7003;36804;40.218;116.442;2023-03-24T06:04:27;25.75;6.50;3.00
50827;PMS7003;36804;40.218;116.442;2023-03-24T06:09:43;24.50;5.00;2.00
50827;PMS7003;36804;40.218;116.442;2023-03-24T06:14:56;16.00;3.00;2.00
50827;PMS7003;36804;40.218;116.442;2023-03-24T06:20:03;17.50;4.00;2.00
50827;PMS7003;36804;40.218;116.442;2023-03-24T06:25:18;37.75;9.25;4.00
50827;PMS7003;36804;40.218;116.442;2023-03-24T06:30:42;33.25;10.50;3.75
50827;PMS7003;36804;40.218;116.442;2023-03-24T06:35:52;29.25;7.00;3.00
50827;PMS7003;36804;40.218;116.442;2023-03-24T06:40:59;23.25;6.00;2.75
50827;PMS7003;36804;40.218;116.442;2023-03-24T06:46:05;25.00;5.25;3.00
50827;PMS7003;36804;40.218;116.442;2023-03-24T06:51:12;41.75;5.25;2.00
50827;PMS7003;36804;40.218;116.442;2023-03-24T06:56:18;23.75;7.00;3.00
50827;PMS7003;36804;40.218;116.442;2023-03-24T07:01:30;29.75;8.00;4.00
50827;PMS7003;36804;40.218;116.442;2023-03-24T07:06:49;40.00;7.75;4.00
50827;PMS7003;36804;40.218;116.442;2023-03-24T07:12:15;30.25;5.00;2.50
50827;PMS7003;36804;40.218;116.442;2023-03-24T07:17:20;29.00;8.75;4.50
50827;PMS7003;36804;40.218;116.442;2023-03-24T07:22:43;28.75;6.00;3.00
50827;PMS7003;36804;40.218;116.442;2023-03-24T07:28:07;26.75;5.50;1.75
50827;PMS7003;36804;40.218;116.442;2023-03-24T07:33:13;30.50;6.00;3.00
50827;PMS7003;36804;40.218;116.442;2023-03-24T07:38:18;25.25;7.25;4.00
50827;PMS7003;36804;40.218;116.442;2023-03-24T07:43:27;21.50;5.25;3.00
50827;PMS7003;36804;40.218;116.442;2023-03-24T07:48:38;35.75;9.75;4.50
50827;PMS7003;36804;40.218;116.442;2023-03-24T07:53:44;32.00;7.75;3.25
50827;PMS7003;36804;40.218;116.442;2023-03-24T07:59:06;24.50;6.75;3.00
50827;PMS7003;36804;40.218;116.442;2023-03-24T08:04:32;29.00;5.00;3.00
50827;PMS7003;36804;40.218;116.442;2023-03-24T08:09:46;27.25;6.50;3.00
50827;PMS7003;36804;40.218;116.442;2023-03-24T08:14:51;25.25;5.25;3.00
50827;PMS7003;36804;40.218;116.442;2023-03-24T08:19:56;25.00;6.00;3.00
50827;PMS7003;36804;40.218;116.442;2023-03-24T08:25:04;27.00;8.50;4.00
50827;PMS7003;36804;40.218;116.442;2023-03-24T08:30:14;31.75;10.25;3.00
50827;PMS7003;36804;40.218;116.442;2023-03-24T08:35:21;26.25;7.00;4.00
50827;PMS7003;36804;40.218;116.442;2023-03-24T08:40:27;27.50;6.75;3.75
50827;PMS7003;36804;40.218;116.442;2023-03-24T08:45:32;36.00;7.75;4.50
50827;PMS7003;36804;40.218;116.442;2023-03-24T08:50:38;27.50;6.00;4.00
50827;PMS7003;36804;40.218;116.442;2023-03-24T08:55:43;28.25;8.00;4.00
50827;PMS7003;36804;40.218;116.442;2023-03-24T09:00:48;24.75;6.75;4.00
50827;PMS7003;36804;40.218;116.442;2023-03-24T09:05:56;30.00;8.75;5.00
50827;PMS7003;36804;40.218;116.442;2023-03-24T09:11:02;32.50;7.50;3.50
50827;PMS7003;36804;40.218;116.442;2023-03-24T09:16:06;27.25;8.50;3.00
50827;PMS7003;36804;40.218;116.442;2023-03-24T09:21:11;26.75;6.75;3.00
50827;PMS7003;36804;40.218;116.442;2023-03-24T09:26:15;25.00;7.00;3.75
50827;PMS7003;36804;40.218;116.442;2023-03-24T09:31:20;28.25;10.50;5.00
50827;PMS7003;36804;40.218;116.442;2023-03-24T09:36:25;39.00;10.75;4.00
50827;PMS7003;36804;40.218;116.442;2023-03-24T09:41:32;25.50;9.00;5.75
50827;PMS7003;36804;40.218;116.442;2023-03-24T09:46:42;29.25;6.50;4.00
50827;PMS7003;36804;40.218;116.442;2023-03-24T09:51:48;22.00;5.75;3.00
50827;PMS7003;36804;40.218;116.442;2023-03-24T09:56:55;26.50;7.75;4.00
50827;PMS7003;36804;40.218;116.442;2023-03-24T10:02:01;27.50;10.00;3.00
50827;PMS7003;36804;40.218;116.442;2023-03-24T10:07:21;23.50;8.25;3.75
50827;PMS7003;36804;40.218;116.442;2023-03-24T10:12:31;24.75;9.00;4.00
50827;PMS7003;36804;40.218;116.442;2023-03-24T10:27:52;30.00;8.25;4.00
50827;PMS7003;36804;40.218;116.442;2023-03-24T10:33:00;33.00;9.75;5.00
50827;PMS7003;36804;40.218;116.442;2023-03-24T10:38:10;37.00;9.25;5.00
50827;PMS7003;36804;40.218;116.442;2023-03-24T10:43:17;48.75;9.25;5.00
50827;PMS7003;36804;40.218;116.442;2023-03-24T10:53:39;34.00;14.00;8.00
50827;PMS7003;36804;40.218;116.442;2023-03-24T10:58:44;36.00;11.50;8.25
50827;PMS7003;36804;40.218;116.442;2023-03-24T11:03:50;26.25;9.50;5.75
50827;PMS7003;36804;40.218;116.442;2023-03-24T11:09:17;25.75;9.75;5.00
50827;PMS7003;36804;40.218;116.442;2023-03-24T11:14:23;29.75;9.75;5.75
50827;PMS7003;36804;40.218;116.442;2023-03-24T11:19:28;37.00;11.00;5.00
50827;PMS7003;36804;40.218;116.442;2023-03-24T11:24:35;29.50;9.00;4.00
50827;PMS7003;36804;40.218;116.442;2023-03-24T11:29:40;28.50;9.75;5.00
50827;PMS7003;36804;40.218;116.442;2023-03-24T11:34:46;35.50;8.00;4.75
50827;PMS7003;36804;40.218;116.442;2023-03-24T11:45:20;29.25;9.00;4.25
50827;PMS7003;36804;40.218;116.442;2023-03-24T11:50:27;32.00;8.00;3.75
50827;PMS7003;36804;40.218;116.442;2023-03-24T11:55:50;32.75;7.00;3.00
50827;PMS7003;36804;40.218;116.442;2023-03-24T12:16:39;31.75;7.75;4.25
50827;PMS7003;36804;40.218;116.442;2023-03-24T12:42:42;37.25;11.75;4.75
50827;PMS7003;36804;40.218;116.442;2023-03-24T13:03:56;29.25;9.75;6.00
50827;PMS7003;36804;40.218;116.442;2023-03-24T13:09:51;28.25;6.75;4.25
50827;PMS7003;36804;40.218;116.442;2023-03-24T13:14:33;33.25;10.75;6.00
50827;PMS7003;36804;40.218;116.442;2023-03-24T13:19:40;35.50;13.00;6.75
50827;PMS7003;36804;40.218;116.442;2023-03-24T13:24:46;34.50;11.00;4.50
50827;PMS7003;36804;40.218;116.442;2023-03-24T13:29:59;33.25;15.00;8.75
50827;PMS7003;36804;40.218;116.442;2023-03-24T13:40:28;27.75;9.75;5.50
50827;PMS7003;36804;40.218;116.442;2023-03-24T13:45:40;29.00;7.75;4.75
50827;PMS7003;36804;40.218;116.442;2023-03-24T13:50:59;34.25;11.75;4.75
50827;PMS7003;36804;40.218;116.442;2023-03-24T13:56:05;26.00;10.25;6.00
50827;PMS7003;36804;40.218;116.442;2023-03-24T14:06:16;25.25;8.00;4.00
50827;PMS7003;36804;40.218;116.442;2023-03-24T14:16:40;28.00;9.00;6.00
50827;PMS7003;36804;40.218;116.442;2023-03-24T14:21:56;34.25;11.25;5.00
50827;PMS7003;36804;40.218;116.442;2023-03-24T14:32:26;26.00;9.00;3.50
50827;PMS7003;36804;40.218;116.442;2023-03-24T14:37:31;25.00;7.75;5.00
50827;PMS7003;36804;40.218;116.442;2023-03-24T14:47:43;27.00;10.75;6.00
50827;PMS7003;36804;40.218;116.442;2023-03-24T14:52:50;28.00;10.25;5.75
50827;PMS7003;36804;40.218;116.442;2023-03-24T14:58:01;27.75;11.00;4.00
50827;PMS7003;36804;40.218;116.442;2023-03-24T15:08:32;25.00;10.00;6.00
50827;PMS7003;36804;40.218;116.442;2023-03-24T15:13:39;27.75;9.00;4.00
50827;PMS7003;36804;40.218;116.442;2023-03-24T15:29:26;23.75;9.75;5.00
50827;PMS7003;36804;40.218;116.442;2023-03-24T15:34:34;28.50;10.00;7.00
50827;PMS7003;36804;40.218;116.442;2023-03-24T15:39:39;29.00;9.25;5.50
50827;PMS7003;36804;40.218;116.442;2023-03-24T15:44:44;28.00;8.75;4.00
50827;PMS7003;36804;40.218;116.442;2023-03-24T15:49:53;26.50;8.25;5.50
50827;PMS7003;36804;40.218;116.442;2023-03-24T16:00:15;35.75;9.00;6.25
50827;PMS7003;36804;40.218;116.442;2023-03-24T16:05:24;26.25;10.50;6.00
50827;PMS7003;36804;40.218;116.442;2023-03-24T16:10:34;27.00;8.50;5.75
50827;PMS7003;36804;40.218;116.442;2023-03-24T16:15:44;25.00;10.00;6.00
50827;PMS7003;36804;40.218;116.442;2023-03-24T16:20:50;27.00;9.75;4.25
50827;PMS7003;36804;40.218;116.442;2023-03-24T16:25:54;26.50;8.50;4.00
50827;PMS7003;36804;40.218;116.442;2023-03-24T16:31:00;25.50;9.00;4.00
50827;PMS7003;36804;40.218;116.442;2023-03-24T16:36:05;24.75;7.00;4.00
50827;PMS7003;36804;40.218;116.442;2023-03-24T16:41:10;29.50;9.75;6.00
50827;PMS7003;36804;40.218;116.442;2023-03-24T16:46:20;26.25;10.00;4.00
50827;PMS7003;36804;40.218;116.442;2023-03-24T16:51:25;25.75;11.00;5.00
50827;PMS7003;36804;40.218;116.442;2023-03-24T16:56:29;30.75;8.75;6.00
50827;PMS7003;36804;40.218;116.442;2023-03-24T17:01:35;25.75;9.00;4.75
50827;PMS7003;36804;40.218;116.442;2023-03-24T17:06:41;26.00;8.75;4.50
50827;PMS7003;36804;40.218;116.442;2023-03-24T17:11:52;29.00;11.25;5.50
50827;PMS7003;36804;40.218;116.442;2023-03-24T17:16:57;34.25;11.25;6.00
50827;PMS7003;36804;40.218;116.442;2023-03-24T17:22:02;33.50;9.25;5.25
50827;PMS7003;36804;40.218;116.442;2023-03-24T17:27:12;33.25;10.75;5.75
50827;PMS7003;36804;40.218;116.442;2023-03-24T17:32:17;33.75;11.75;5.25
50827;PMS7003;36804;40.218;116.442;2023-03-24T17:37:23;30.75;12.50;5.00
50827;PMS7003;36804;40.218;116.442;2023-03-24T17:42:28;29.50;8.25;5.00
50827;PMS7003;36804;40.218;116.442;2023-03-24T17:47:32;28.50;10.00;5.25
50827;PMS7003;36804;40.218;116.442;2023-03-24T17:52:44;32.25;8.00;5.00
50827;PMS7003;36804;40.218;116.442;2023-03-24T17:57:49;33.75;15.00;9.50
50827;PMS7003;36804;40.218;116.442;2023-03-24T18:02:53;25.25;8.75;5.75
50827;PMS7003;36804;40.218;116.442;2023-03-24T18:07:57;27.25;7.75;4.00
50827;PMS7003;36804;40.218;116.442;2023-03-24T18:13:02;34.75;11.50;7.00
50827;PMS7003;36804;40.218;116.442;2023-03-24T18:18:06;32.00;9.25;4.50
50827;PMS7003;36804;40.218;116.442;2023-03-24T18:23:12;23.25;9.00;5.00
50827;PMS7003;36804;40.218;116.442;2023-03-24T18:28:18;27.75;10.50;6.00
50827;PMS7003;36804;40.218;116.442;2023-03-24T18:33:23;29.75;10.50;5.00
50827;PMS7003;36804;40.218;116.442;2023-03-24T18:38:27;32.50;11.00;6.00
50827;PMS7003;36804;40.218;116.442;2023-03-24T18:43:31;31.25;11.50;6.75
50827;PMS7003;36804;40.218;116.442;2023-03-24T18:48:45;26.25;8.50;4.50
50827;PMS7003;36804;40.218;116.442;2023-03-24T18:53:50;22.75;8.75;5.25
50827;PMS7003;36804;40.218;116.442;2023-03-24T18:58:54;27.00;9.75;5.00
50827;PMS7003;36804;40.218;116.442;2023-03-24T19:03:59;25.00;10.00;6.50
50827;PMS7003;36804;40.218;116.442;2023-03-24T19:09:03;28.75;7.00;4.25
50827;PMS7003;36804;40.218;116.442;2023-03-24T19:14:07;23.50;7.75;4.25
50827;PMS7003;36804;40.218;116.442;2023-03-24T19:19:12;28.50;6.25;4.00
50827;PMS7003;36804;40.218;116.442;2023-03-24T19:24:16;36.00;9.50;6.00
50827;PMS7003;36804;40.218;116.442;2023-03-24T19:29:20;23.00;6.00;4.25
50827;PMS7003;36804;40.218;116.442;2023-03-24T19:34:24;27.00;8.50;5.25
50827;PMS7003;36804;40.218;116.442;2023-03-24T19:39:29;25.25;7.75;5.00
50827;PMS7003;36804;40.218;116.442;2023-03-24T19:44:33;26.75;7.75;5.25
50827;PMS7003;36804;40.218;116.442;2023-03-24T19:49:38;27.75;12.25;6.00
50827;PMS7003;36804;40.218;116.442;2023-03-24T19:54:42;24.25;8.50;5.50
50827;PMS7003;36804;40.218;116.442;2023-03-24T19:59:46;27.00;11.00;6.00
50827;PMS7003;36804;40.218;116.442;2023-03-24T20:04:50;23.00;10.25;5.75
50827;PMS7003;36804;40.218;116.442;2023-03-24T20:09:57;24.25;9.50;5.00
50827;PMS7003;36804;40.218;116.442;2023-03-24T20:15:02;21.75;8.50;4.75
50827;PMS7003;36804;40.218;116.442;2023-03-24T20:20:08;25.25;9.75;5.00
50827;PMS7003;36804;40.218;116.442;2023-03-24T20:25:14;29.75;9.75;4.25
50827;PMS7003;36804;40.218;116.442;2023-03-24T20:30:18;22.75;8.75;4.50
50827;PMS7003;36804;40.218;116.442;2023-03-24T20:35:23;24.00;9.75;5.75
50827;PMS7003;36804;40.218;116.442;2023-03-24T20:40:27;23.50;8.25;5.00
50827;PMS7003;36804;40.218;116.442;2023-03-24T20:45:31;31.25;9.50;5.00
50827;PMS7003;36804;40.218;116.442;2023-03-24T20:50:36;23.75;7.50;5.25
50827;PMS7003;36804;40.218;116.442;2023-03-24T20:55:40;30.25;9.75;5.50
50827;PMS7003;36804;40.218;116.442;2023-03-24T21:00:47;29.25;10.00;5.00
50827;PMS7003;36804;40.218;116.442;2023-03-24T21:05:54;31.50;10.50;6.50
50827;PMS7003;36804;40.218;116.442;2023-03-24T21:10:58;30.00;9.00;5.25
50827;PMS7003;36804;40.218;116.442;2023-03-24T21:16:07;26.75;9.00;5.00
50827;PMS7003;36804;40.218;116.442;2023-03-24T21:21:11;29.75;9.00;5.00
50827;PMS7003;36804;40.218;116.442;2023-03-24T21:26:16;29.50;9.25;5.00
50827;PMS7003;36804;40.218;116.442;2023-03-24T21:31:21;24.75;8.25;4.00
50827;PMS7003;36804;40.218;116.442;2023-03-24T21:36:26;30.00;12.00;6.75
50827;PMS7003;36804;40.218;116.442;2023-03-24T21:41:32;24.50;9.50;6.00
50827;PMS7003;36804;40.218;116.442;2023-03-24T21:46:36;24.75;9.50;5.00
50827;PMS7003;36804;40.218;116.442;2023-03-24T21:51:40;28.25;8.50;4.75
50827;PMS7003;36804;40.218;116.442;2023-03-24T21:56:45;21.25;8.00;5.00
50827;PMS7003;36804;40.218;116.442;2023-03-24T22:01:50;30.50;12.25;6.75
50827;PMS7003;36804;40.218;116.442;2023-03-24T22:06:55;26.50;9.50;7.00
50827;PMS7003;36804;40.218;116.442;2023-03-24T22:11:59;37.00;11.75;6.75
50827;PMS7003;36804;40.218;116.442;2023-03-24T22:17:03;32.00;12.00;4.25
50827;PMS7003;36804;40.218;116.442;2023-03-24T22:22:07;32.25;9.75;6.25
50827;PMS7003;36804;40.218;116.442;2023-03-24T22:27:12;33.00;13.75;6.50
50827;PMS7003;36804;40.218;116.442;2023-03-24T22:32:16;31.75;9.75;4.75
50827;PMS7003;36804;40.218;116.442;2023-03-24T22:37:20;27.00;9.00;5.25
50827;PMS7003;36804;40.218;116.442;2023-03-24T22:42:25;29.00;10.25;6.00
50827;PMS7003;36804;40.218;116.442;2023-03-24T22:47:29;29.00;9.00;5.00
50827;PMS7003;36804;40.218;116.442;2023-03-24T22:52:33;25.50;10.25;5.75
50827;PMS7003;36804;40.218;116.442;2023-03-24T22:57:38;35.50;9.50;6.50
50827;PMS7003;36804;40.218;116.442;2023-03-24T23:02:42;27.50;10.75;5.00
50827;PMS7003;36804;40.218;116.442;2023-03-24T23:07:46;27.00;9.50;5.25
50827;PMS7003;36804;40.218;116.442;2023-03-24T23:12:51;36.50;11.00;5.00
50827;PMS7003;36804;40.218;116.442;2023-03-24T23:17:56;28.00;8.75;4.75
50827;PMS7003;36804;40.218;116.442;2023-03-24T23:23:01;29.50;10.50;6.00
50827;PMS7003;36804;40.218;116.442;2023-03-24T23:28:08;29.50;12.00;6.00
50827;PMS7003;36804;40.218;116.442;2023-03-24T23:33:13;27.50;11.25;4.00
50827;PMS7003;36804;40.218;116.442;2023-03-24T23:38:17;26.25;8.75;4.50
50827;PMS7003;36804;40.218;116.442;2023-03-24T23:43:21;25.75;10.25;6.25
50827;PMS7003;36804;40.218;116.442;2023-03-24T23:48:26;28.75;11.75;6.00
50827;PMS7003;36804;40.218;116.442;2023-03-24T23:53:30;27.00;9.75;6.25
50827;PMS7003;36804;40.218;116.442;2023-03-24T23:58:36;29.75;12.75;7.75
